Time;durP1;ratioP1;P1;durP2;ratioP2;P2;SDS_P1;SDS_P2;PMS_P1;PMS_P2;Temp;Humidity;BMP_temperature;BMP_pressure;BME280_temperature;BME280_humidity;BME280_pressure;Samples;Min_cycle;Max_cycle;Signal;HPM_P1;HPM_P2
2022/04/03 00:01:41;;;;;;;2.63;0.68;;;22.20;99.90;;;;;;5077144;28;20024;-75
2022/04/03 00:04:09;;;;;;;2.70;0.80;;;22.30;99.90;;;;;;5076892;28;20072;-75
2022/04/03 00:06:36;;;;;;;1.02;0.30;;;22.30;99.90;;;;;;5075422;28;20043;-75
2022/04/03 00:09:04;;;;;;;3.15;0.90;;;22.10;99.90;;;;;;5075942;28;20070;-74
2022/04/03 00:11:32;;;;;;;1.70;0.50;;;22.20;99.90;;;;;;5073681;28;20515;-77
2022/04/03 00:14:00;;;;;;;2.85;0.90;;;22.40;99.90;;;;;;5074782;28;20021;-74
2022/04/03 00:16:27;;;;;;;2.28;0.50;;;22.40;99.90;;;;;;5073456;28;20112;-75
2022/04/03 00:18:55;;;;;;;1.73;0.47;;;22.40;99.90;;;;;;5073472;28;20447;-76
2022/04/03 00:21:22;;;;;;;2.03;0.65;;;22.70;99.90;;;;;;5074516;28;20495;-76
2022/04/03 00:23:49;;;;;;;2.17;0.60;;;23.10;99.90;;;;;;5074468;28;20074;-76
2022/04/03 00:26:17;;;;;;;3.42;0.50;;;23.10;99.90;;;;;;5073419;28;20119;-79
2022/04/03 00:28:44;;;;;;;4.28;0.75;;;23.10;99.90;;;;;;5074741;28;20025;-77
2022/04/03 00:31:12;;;;;;;2.80;0.80;;;22.90;99.90;;;;;;5074456;28;20052;-77
2022/04/03 00:33:40;;;;;;;2.88;0.60;;;22.70;99.90;;;;;;5073284;28;20108;-77
2022/04/03 00:36:08;;;;;;;2.10;0.43;;;22.90;99.90;;;;;;5074427;28;20023;-76
2022/04/03 00:38:35;;;;;;;2.47;0.50;;;22.90;99.90;;;;;;5073221;28;20029;-78
2022/04/03 00:41:03;;;;;;;2.03;0.45;;;22.70;99.90;;;;;;5072987;28;20025;-77
2022/04/03 00:43:31;;;;;;;1.85;0.75;;;22.50;99.90;;;;;;5073248;28;20021;-76
2022/04/03 00:46:01;;;;;;;1.45;0.60;;;22.40;99.90;;;;;;5072930;28;20031;-77
2022/04/03 00:48:28;;;;;;;2.38;0.60;;;22.60;99.90;;;;;;5074414;28;20016;-77
2022/04/03 00:50:56;;;;;;;1.10;0.50;;;22.80;99.90;;;;;;5073282;28;20056;-77
2022/04/03 00:53:23;;;;;;;2.38;0.63;;;23.40;99.90;;;;;;5075036;28;20469;-77
2022/04/03 00:55:52;;;;;;;2.33;0.65;;;23.40;99.90;;;;;;5072039;28;20021;-75
2022/04/03 00:58:19;;;;;;;5.60;1.08;;;23.50;99.90;;;;;;5074125;28;20021;-74
2022/04/03 01:00:47;;;;;;;3.50;0.77;;;23.10;99.90;;;;;;5072586;28;20051;-76
2022/04/03 01:03:14;;;;;;;3.80;0.60;;;22.90;99.90;;;;;;5072681;28;20170;-75
2022/04/03 01:05:41;;;;;;;2.60;0.60;;;22.80;99.90;;;;;;5073793;28;20405;-75
2022/04/03 01:08:09;;;;;;;3.35;0.75;;;22.80;99.90;;;;;;5072513;28;20043;-76
2022/04/03 01:10:36;;;;;;;3.22;0.60;;;23.10;99.90;;;;;;5073835;28;20381;-75
2022/04/03 01:13:04;;;;;;;1.33;0.57;;;23.20;99.90;;;;;;5073811;28;20017;-76
2022/04/03 01:15:33;;;;;;;2.33;1.00;;;23.30;99.90;;;;;;5073796;28;20377;-75
2022/04/03 01:18:00;;;;;;;1.45;0.70;;;23.80;99.90;;;;;;5073795;28;20013;-76
2022/04/03 01:20:28;;;;;;;1.75;0.68;;;23.90;99.80;;;;;;5073678;28;20093;-75
2022/04/03 01:22:55;;;;;;;2.72;0.80;;;23.90;99.50;;;;;;5072184;28;20021;-75
2022/04/03 01:25:22;;;;;;;2.53;0.80;;;23.70;99.70;;;;;;5073601;28;20024;-74
2022/04/03 01:27:50;;;;;;;1.23;0.68;;;23.50;99.90;;;;;;5073415;28;20430;-75
2022/04/03 01:30:17;;;;;;;5.10;0.98;;;23.40;99.90;;;;;;5073409;28;20096;-75
2022/04/03 01:32:45;;;;;;;2.05;0.63;;;23.40;99.90;;;;;;5073277;28;20029;-75
2022/04/03 01:35:12;;;;;;;2.33;0.68;;;23.80;99.90;;;;;;5073458;28;20391;-76
2022/04/03 01:37:40;;;;;;;2.63;1.02;;;24.20;99.90;;;;;;5071957;28;20021;-75
2022/04/03 01:40:08;;;;;;;3.42;0.77;;;24.20;98.50;;;;;;5071978;28;20024;-75
2022/04/03 01:42:36;;;;;;;1.92;0.60;;;24.00;98.30;;;;;;5071855;28;20032;-77
2022/04/03 01:45:05;;;;;;;4.75;1.02;;;24.00;98.70;;;;;;5071880;28;20032;-75
2022/04/03 01:47:32;;;;;;;2.72;1.00;;;24.20;98.60;;;;;;5071700;28;20370;-76
2022/04/03 01:49:59;;;;;;;3.13;0.57;;;24.40;97.10;;;;;;5073166;28;20032;-75
2022/04/03 01:52:27;;;;;;;2.78;0.60;;;24.50;97.20;;;;;;5072639;28;20499;-75
2022/04/03 01:54:54;;;;;;;2.38;0.60;;;24.10;96.90;;;;;;5071251;28;20162;-75
2022/04/03 01:57:21;;;;;;;3.15;0.85;;;24.00;96.90;;;;;;5071880;28;20021;-75
2022/04/03 01:59:49;;;;;;;5.90;0.73;;;24.40;98.10;;;;;;5071808;28;20381;-75
2022/04/03 02:02:16;;;;;;;5.22;0.57;;;24.30;96.10;;;;;;5070861;28;20493;-75
2022/04/03 02:04:45;;;;;;;3.97;0.70;;;24.30;97.20;;;;;;5072202;28;20048;-76
2022/04/03 02:07:12;;;;;;;4.03;0.80;;;24.60;95.80;;;;;;5071636;28;20027;-75
2022/04/03 02:09:40;;;;;;;2.25;0.50;;;24.50;94.70;;;;;;5072497;28;20028;-75
2022/04/03 02:12:07;;;;;;;3.85;0.90;;;24.30;95.00;;;;;;5072535;28;20028;-75
2022/04/03 02:14:35;;;;;;;2.63;0.63;;;24.10;95.50;;;;;;5070906;28;20041;-75
2022/04/03 02:17:02;;;;;;;3.35;0.80;;;24.30;95.60;;;;;;5071073;28;20448;-75
2022/04/03 02:19:29;;;;;;;1.02;0.50;;;24.70;96.30;;;;;;5072405;28;20016;-75
2022/04/03 02:21:57;;;;;;;2.60;0.60;;;24.80;94.50;;;;;;5071211;28;20393;-75
2022/04/03 02:24:24;;;;;;;2.20;0.75;;;24.70;94.80;;;;;;5071086;28;20111;-75
2022/04/03 02:26:51;;;;;;;2.25;0.57;;;24.40;93.90;;;;;;5072537;28;20386;-75
2022/04/03 02:29:19;;;;;;;2.42;0.60;;;24.00;93.90;;;;;;5072524;28;20108;-75
2022/04/03 02:31:46;;;;;;;2.50;0.73;;;24.00;94.10;;;;;;5071010;28;20505;-74
2022/04/03 02:34:13;;;;;;;2.28;0.68;;;23.90;95.00;;;;;;5070859;28;20016;-74
2022/04/03 02:36:43;;;;;;;3.35;0.70;;;24.00;94.30;;;;;;5070865;28;20035;-75
2022/04/03 02:39:12;;;;;;;3.75;0.60;;;24.50;93.60;;;;;;5072354;28;20017;-76
2022/04/03 02:41:40;;;;;;;2.23;0.67;;;24.90;93.40;;;;;;5070988;28;20024;-75
2022/04/03 02:44:07;;;;;;;1.40;0.55;;;25.20;94.00;;;;;;5072259;28;20254;-75
2022/04/03 02:46:34;;;;;;;3.00;0.43;;;25.50;94.10;;;;;;5072159;28;20021;-75
2022/04/03 02:49:02;;;;;;;3.22;0.70;;;25.60;92.60;;;;;;5072104;28;20056;-75
2022/04/03 02:51:30;;;;;;;2.22;0.65;;;25.60;92.70;;;;;;5072130;28;20108;-75
2022/04/03 02:53:57;;;;;;;1.88;0.50;;;25.30;91.80;;;;;;5070616;28;20082;-76
2022/04/03 02:56:24;;;;;;;2.70;0.85;;;25.10;92.00;;;;;;5070667;28;20056;-75
2022/04/03 02:58:54;;;;;;;4.70;0.60;;;25.40;91.80;;;;;;5070727;28;20027;-75
2022/04/03 03:01:22;;;;;;;1.85;0.55;;;25.20;91.70;;;;;;5070798;28;20397;-76
2022/04/03 03:03:50;;;;;;;1.13;0.50;;;25.10;92.50;;;;;;5071789;28;20037;-76
2022/04/03 03:06:19;;;;;;;4.03;0.50;;;25.30;92.30;;;;;;5072061;28;20020;-76
2022/04/03 03:08:46;;;;;;;1.65;0.60;;;25.30;93.50;;;;;;5072055;28;20025;-75
2022/04/03 03:11:14;;;;;;;2.80;0.90;;;25.30;92.40;;;;;;5070627;28;20118;-76
2022/04/03 03:13:42;;;;;;;2.75;0.60;;;25.20;91.60;;;;;;5070611;28;20078;-75
2022/04/03 03:16:10;;;;;;;1.80;0.50;;;25.20;93.30;;;;;;5071950;28;20048;-75
2022/04/03 03:18:37;;;;;;;4.35;0.63;;;25.20;93.00;;;;;;5073502;28;20033;-75
2022/04/03 03:21:04;;;;;;;3.40;0.98;;;25.30;92.00;;;;;;5075915;28;20046;-75
2022/04/03 03:23:32;;;;;;;2.35;0.70;;;25.30;92.40;;;;;;5075972;28;20103;-76
2022/04/03 03:25:59;;;;;;;2.15;0.75;;;25.60;93.10;;;;;;5074548;28;20021;-76
2022/04/03 03:28:27;;;;;;;1.38;0.60;;;26.00;92.20;;;;;;5075773;28;20024;-75
2022/04/03 03:30:54;;;;;;;1.08;0.60;;;25.70;91.30;;;;;;5074399;28;20370;-75
2022/04/03 03:33:21;;;;;;;3.72;0.55;;;25.20;91.90;;;;;;5075687;28;20034;-75
2022/04/03 03:35:48;;;;;;;2.22;0.50;;;25.00;93.00;;;;;;5075615;28;20394;-76
2022/04/03 03:38:16;;;;;;;3.03;0.93;;;25.30;92.80;;;;;;5075572;28;20028;-75
2022/04/03 03:40:44;;;;;;;1.92;0.60;;;25.30;91.70;;;;;;5075464;28;20017;-75
2022/04/03 03:43:12;;;;;;;2.95;0.65;;;25.30;91.80;;;;;;5074075;28;20029;-75
2022/04/03 03:45:39;;;;;;;3.13;0.68;;;25.30;91.70;;;;;;5074052;28;20048;-76
2022/04/03 03:48:08;;;;;;;2.15;0.73;;;25.20;91.90;;;;;;5074126;28;20070;-75
2022/04/03 03:50:36;;;;;;;1.58;0.45;;;25.40;92.60;;;;;;5073714;28;20107;-75
2022/04/03 03:53:03;;;;;;;3.33;0.55;;;26.10;92.80;;;;;;5075335;28;20024;-76
2022/04/03 03:55:30;;;;;;;2.85;0.60;;;26.40;90.70;;;;;;5073823;28;20338;-76
2022/04/03 03:57:58;;;;;;;2.28;0.55;;;26.30;90.40;;;;;;5075073;28;20036;-76
2022/04/03 04:00:26;;;;;;;2.25;0.70;;;26.40;91.10;;;;;;5075089;28;20052;-76
2022/04/03 04:02:53;;;;;;;2.35;0.60;;;26.30;90.20;;;;;;5073776;28;20028;-76
2022/04/03 04:05:21;;;;;;;3.53;1.08;;;26.30;91.40;;;;;;5074828;28;20523;-76
2022/04/03 04:07:49;;;;;;;2.33;0.60;;;26.60;91.90;;;;;;5073693;28;20066;-77
2022/04/03 04:10:18;;;;;;;2.13;0.75;;;26.70;90.80;;;;;;5075097;28;20100;-76
2022/04/03 04:12:47;;;;;;;3.60;0.98;;;26.50;90.00;;;;;;5074757;28;20033;-76
2022/04/03 04:15:16;;;;;;;2.63;0.85;;;26.70;90.40;;;;;;5074903;28;20362;-76
2022/04/03 04:17:46;;;;;;;2.22;0.60;;;26.70;90.70;;;;;;5073403;28;20027;-75
2022/04/03 04:20:18;;;;;;;2.20;0.38;;;26.50;90.90;;;;;;5074895;28;20043;-75
2022/04/03 04:22:48;;;;;;;1.77;0.65;;;26.30;90.50;;;;;;5074628;28;20067;-75
2022/04/03 04:25:17;;;;;;;1.90;0.68;;;26.40;91.30;;;;;;5073335;28;20032;-75
2022/04/03 04:27:45;;;;;;;1.80;0.60;;;26.40;91.10;;;;;;5074654;28;20039;-75
2022/04/03 04:30:14;;;;;;;3.33;0.55;;;26.50;90.80;;;;;;5073520;28;20103;-75
2022/04/03 04:32:42;;;;;;;2.60;0.90;;;26.70;91.30;;;;;;5074539;28;20024;-75
2022/04/03 04:35:10;;;;;;;3.85;0.55;;;26.70;92.00;;;;;;5073065;28;20393;-75
2022/04/03 04:37:37;;;;;;;2.15;0.68;;;26.60;90.50;;;;;;5074382;28;20020;-76
2022/04/03 04:40:06;;;;;;;2.35;0.75;;;26.50;90.70;;;;;;5073023;28;20027;-76
2022/04/03 04:42:33;;;;;;;2.00;0.50;;;26.30;91.00;;;;;;5074246;28;20025;-75
2022/04/03 04:45:01;;;;;;;4.60;0.73;;;26.40;91.50;;;;;;5074293;28;20026;-75
2022/04/03 04:47:28;;;;;;;1.98;0.55;;;26.20;91.60;;;;;;5074210;28;20017;-75
2022/04/03 04:49:55;;;;;;;1.40;0.40;;;26.00;91.20;;;;;;5074175;28;20072;-75
2022/04/03 04:52:23;;;;;;;2.60;0.50;;;26.00;91.60;;;;;;5074158;28;20039;-75
2022/04/03 04:54:50;;;;;;;3.45;0.70;;;25.90;92.90;;;;;;5074370;28;20108;-75
2022/04/03 04:57:17;;;;;;;3.70;1.13;;;25.90;92.70;;;;;;5074127;28;20043;-75
2022/04/03 04:59:45;;;;;;;3.40;0.65;;;26.10;93.20;;;;;;5074036;28;20035;-76
2022/04/03 05:02:12;;;;;;;3.03;1.00;;;26.20;92.90;;;;;;5072508;28;20082;-76
2022/04/03 05:04:39;;;;;;;1.52;0.70;;;26.10;92.00;;;;;;5072298;28;20044;-75
2022/04/03 05:07:08;;;;;;;2.47;0.70;;;25.90;92.90;;;;;;5072440;28;20040;-76
2022/04/03 05:09:36;;;;;;;2.65;1.05;;;25.70;93.40;;;;;;5072574;28;20031;-74
2022/04/03 05:12:03;;;;;;;1.63;0.50;;;25.60;93.60;;;;;;5072464;28;20036;-75
2022/04/03 05:14:31;;;;;;;2.70;1.00;;;25.50;93.40;;;;;;5072347;28;20037;-75
2022/04/03 05:16:59;;;;;;;3.60;0.80;;;25.40;93.70;;;;;;5073574;28;20149;-75
2022/04/03 05:19:27;;;;;;;2.47;0.60;;;25.40;94.10;;;;;;5072102;28;20031;-74
2022/04/03 05:21:54;;;;;;;1.80;0.68;;;25.20;93.40;;;;;;5072352;28;20025;-74
2022/04/03 05:24:21;;;;;;;5.13;1.08;;;25.20;93.60;;;;;;5073474;28;20082;-76
2022/04/03 05:26:50;;;;;;;2.20;0.60;;;25.20;94.90;;;;;;5071949;28;20032;-76
2022/04/03 05:29:18;;;;;;;2.13;0.73;;;25.00;94.30;;;;;;5072107;28;20456;-75
2022/04/03 05:31:45;;;;;;;2.97;0.88;;;24.90;93.90;;;;;;5073343;28;20033;-75
2022/04/03 05:34:13;;;;;;;3.03;0.70;;;24.80;94.20;;;;;;5073290;28;20499;-74
2022/04/03 05:36:40;;;;;;;2.17;0.75;;;24.80;93.90;;;;;;5072048;28;20393;-75
2022/04/03 05:39:07;;;;;;;3.45;0.80;;;24.80;93.60;;;;;;5073303;28;20025;-75
2022/04/03 05:41:35;;;;;;;4.03;0.80;;;24.80;93.80;;;;;;5071587;28;20029;-75
2022/04/03 05:44:03;;;;;;;3.38;0.90;;;24.80;93.80;;;;;;5071800;28;20127;-74
2022/04/03 05:46:31;;;;;;;3.13;0.80;;;24.60;95.00;;;;;;5071793;28;20020;-74
2022/04/03 05:48:59;;;;;;;1.75;0.65;;;24.60;95.30;;;;;;5072904;28;20031;-74
2022/04/03 05:51:27;;;;;;;4.53;0.90;;;24.60;95.50;;;;;;5071577;28;20028;-74
2022/04/03 05:53:54;;;;;;;2.33;0.95;;;24.50;94.90;;;;;;5072970;28;20115;-75
2022/04/03 05:56:27;;;;;;;3.67;1.27;;;24.60;96.10;;;;;;5072855;28;20433;-74
2022/04/03 05:58:55;;;;;;;1.65;0.75;;;24.50;95.00;;;;;;5071557;28;20499;-74
2022/04/03 06:01:22;;;;;;;3.45;0.80;;;24.60;95.60;;;;;;5071497;28;20033;-74
2022/04/03 06:03:50;;;;;;;4.40;0.90;;;24.60;96.00;;;;;;5072593;28;20068;-74
2022/04/03 06:06:18;;;;;;;2.17;0.63;;;24.50;96.80;;;;;;5071495;28;20036;-77
2022/04/03 06:08:45;;;;;;;3.20;0.82;;;24.40;97.30;;;;;;5071359;28;20024;-75
2022/04/03 06:11:13;;;;;;;4.38;1.00;;;24.30;97.40;;;;;;5072720;28;20108;-76
2022/04/03 06:13:41;;;;;;;2.70;0.85;;;24.20;96.60;;;;;;5072609;28;20401;-75
2022/04/03 06:16:08;;;;;;;2.75;1.10;;;24.10;98.40;;;;;;5071409;28;20024;-76
2022/04/03 06:18:35;;;;;;;4.60;1.35;;;24.00;96.40;;;;;;5072447;28;20020;-75
2022/04/03 06:21:03;;;;;;;3.85;1.00;;;23.90;97.70;;;;;;5072537;28;20109;-76
2022/04/03 06:23:30;;;;;;;3.35;1.15;;;23.80;98.30;;;;;;5072562;28;20151;-75
2022/04/03 06:25:58;;;;;;;6.57;1.80;;;23.70;98.10;;;;;;5072642;28;20074;-75
2022/04/03 06:28:26;;;;;;;2.58;1.00;;;23.60;98.60;;;;;;5071053;28;20056;-75
2022/04/03 06:30:54;;;;;;;2.83;1.15;;;23.50;98.10;;;;;;5070796;28;20033;-76
2022/04/03 06:33:22;;;;;;;4.10;1.38;;;23.40;97.60;;;;;;5072354;28;20103;-75
2022/04/03 06:35:49;;;;;;;2.88;1.33;;;23.30;97.00;;;;;;5072246;28;20028;-76
2022/04/03 06:38:17;;;;;;;3.10;1.33;;;23.30;96.60;;;;;;5072390;28;20389;-76
2022/04/03 06:40:50;;;;;;;5.57;1.63;;;23.30;96.40;;;;;;5072236;28;20032;-77
2022/04/03 06:43:26;;;;;;;3.75;1.60;;;23.20;97.40;;;;;;5072261;28;20029;-76
2022/04/03 06:45:54;;;;;;;2.72;1.83;;;23.10;98.00;;;;;;5070656;28;20457;-76
2022/04/03 06:48:22;;;;;;;6.05;5.18;;;23.10;97.80;;;;;;5072077;28;20476;-75
2022/04/03 06:50:51;;;;;;;5.60;5.05;;;23.10;97.70;;;;;;5070648;28;20046;-77
2022/04/03 06:53:18;;;;;;;3.92;2.33;;;23.00;97.40;;;;;;5070311;28;20052;-76
2022/04/03 06:55:46;;;;;;;2.70;1.50;;;23.00;97.70;;;;;;5070591;28;20055;-76
2022/04/03 06:58:13;;;;;;;3.45;1.60;;;22.90;97.80;;;;;;5072125;28;20576;-76
2022/04/03 07:00:41;;;;;;;3.60;2.22;;;22.80;97.20;;;;;;5070575;28;20017;-75
2022/04/03 07:03:08;;;;;;;4.57;2.00;;;22.70;97.60;;;;;;5072135;28;20017;-75
2022/04/03 07:05:36;;;;;;;2.85;1.98;;;22.70;97.40;;;;;;5071758;28;20115;-77
2022/04/03 07:08:03;;;;;;;3.33;2.17;;;22.70;96.90;;;;;;5070667;28;20124;-76
2022/04/03 07:10:31;;;;;;;6.47;3.25;;;22.60;97.10;;;;;;5071852;28;20381;-75
2022/04/03 07:12:59;;;;;;;3.85;2.50;;;22.50;96.70;;;;;;5070613;28;20021;-75
2022/04/03 07:15:27;;;;;;;2.47;1.55;;;22.50;97.70;;;;;;5071802;28;20402;-76
2022/04/03 07:17:54;;;;;;;2.15;1.13;;;22.40;97.40;;;;;;5072083;28;20491;-76
2022/04/03 07:20:21;;;;;;;2.92;1.60;;;22.30;98.00;;;;;;5070401;28;20059;-76
2022/04/03 07:22:49;;;;;;;3.50;1.20;;;22.20;98.50;;;;;;5071936;28;20032;-77
2022/04/03 07:25:17;;;;;;;4.80;1.50;;;22.10;97.60;;;;;;5070503;28;20422;-76
2022/04/03 07:27:44;;;;;;;2.28;1.20;;;22.10;97.20;;;;;;5071826;28;20504;-76
2022/04/03 07:30:15;;;;;;;2.00;1.10;;;22.00;97.50;;;;;;5071971;28;20381;-76
2022/04/03 07:32:41;;;;;;;;;;;22.00;98.40;;;;;;5070643;28;20144;-76
2022/04/03 07:35:09;;;;;;;3.50;1.20;;;21.90;97.30;;;;;;5071846;28;20292;-76
2022/04/03 07:37:37;;;;;;;3.03;1.17;;;21.80;98.30;;;;;;5070531;28;20032;-75
2022/04/03 07:40:06;;;;;;;8.40;3.83;;;21.80;97.50;;;;;;5071872;28;20021;-75
2022/04/03 07:42:34;;;;;;;4.03;2.42;;;21.80;98.20;;;;;;5070345;28;20032;-75
2022/04/03 07:45:02;;;;;;;4.43;2.42;;;21.70;97.80;;;;;;5071699;28;20205;-75
2022/04/03 07:47:29;;;;;;;2.90;1.40;;;21.60;98.00;;;;;;5071563;28;20431;-75
2022/04/03 07:49:58;;;;;;;6.70;1.70;;;21.60;97.80;;;;;;5071776;28;20445;-76
2022/04/03 07:52:26;;;;;;;3.25;1.60;;;21.50;97.50;;;;;;5070110;28;20507;-75
2022/04/03 07:54:53;;;;;;;4.35;1.77;;;21.40;98.90;;;;;;5070295;28;20111;-74
2022/04/03 07:57:21;;;;;;;2.65;1.88;;;21.40;98.00;;;;;;5071482;28;20078;-75
2022/04/03 07:59:48;;;;;;;5.65;2.70;;;21.40;98.50;;;;;;5071610;28;20411;-76
2022/04/03 08:02:16;;;;;;;3.60;2.50;;;21.30;97.80;;;;;;5071515;28;20115;-76
2022/04/03 08:04:43;;;;;;;4.05;2.28;;;21.30;98.00;;;;;;5071598;28;20381;-76
2022/04/03 08:07:10;;;;;;;8.80;5.68;;;21.20;98.10;;;;;;5075281;28;20494;-76
2022/04/03 08:09:38;;;;;;;9.50;7.85;;;21.20;97.70;;;;;;5073941;28;20021;-76
2022/04/03 08:12:06;;;;;;;4.13;2.70;;;21.20;98.30;;;;;;5074789;28;20044;-75
2022/04/03 08:14:34;;;;;;;6.13;3.97;;;21.20;98.00;;;;;;5073758;28;20020;-76
2022/04/03 08:17:01;;;;;;;5.00;3.00;;;21.10;98.20;;;;;;5073581;28;20504;-76
2022/04/03 08:19:29;;;;;;;4.70;2.75;;;21.00;97.40;;;;;;5073596;28;20560;-77
2022/04/03 08:21:56;;;;;;;3.88;1.55;;;21.00;97.50;;;;;;5073548;28;20507;-77
2022/04/03 08:24:24;;;;;;;4.63;1.70;;;21.00;97.30;;;;;;5074853;28;20032;-77
2022/04/03 08:26:51;;;;;;;4.40;1.73;;;21.00;97.40;;;;;;5074799;28;20021;-76
2022/04/03 08:29:18;;;;;;;3.08;1.88;;;20.90;97.80;;;;;;5074810;28;20021;-77
2022/04/03 08:31:46;;;;;;;5.38;3.10;;;20.90;97.50;;;;;;5073231;28;20116;-78
2022/04/03 08:34:13;;;;;;;5.07;1.90;;;20.90;98.00;;;;;;5073317;28;20031;-76
2022/04/03 08:36:40;;;;;;;3.45;1.40;;;20.70;97.90;;;;;;5073145;28;20028;-77
2022/04/03 08:39:08;;;;;;;2.72;1.42;;;20.70;97.90;;;;;;5074579;28;20362;-76
2022/04/03 08:41:36;;;;;;;2.08;0.95;;;20.60;98.30;;;;;;5073115;28;20035;-77
2022/04/03 08:44:07;;;;;;;2.45;1.25;;;20.60;97.80;;;;;;5073196;28;20028;-77
2022/04/03 08:46:36;;;;;;;3.45;1.42;;;20.50;98.20;;;;;;5074569;28;20028;-77
2022/04/03 08:49:06;;;;;;;2.83;1.45;;;20.50;98.10;;;;;;5074463;28;20063;-76
2022/04/03 08:51:39;;;;;;;5.28;1.67;;;20.60;97.90;;;;;;5072968;28;20086;-77
2022/04/03 08:54:07;;;;;;;1.70;1.20;;;20.50;97.90;;;;;;5072880;28;20029;-77
2022/04/03 08:56:35;;;;;;;5.40;3.83;;;20.60;98.10;;;;;;5072955;28;20028;-76
2022/04/03 08:59:02;;;;;;;3.60;2.55;;;20.50;97.80;;;;;;5072721;28;20020;-74
2022/04/03 09:01:30;;;;;;;4.18;2.10;;;20.50;97.60;;;;;;5074056;28;20017;-73
2022/04/03 09:03:58;;;;;;;3.72;1.70;;;20.40;97.80;;;;;;5072413;28;20423;-74
2022/04/03 09:06:25;;;;;;;2.25;1.10;;;20.30;97.90;;;;;;5072705;28;20028;-74
2022/04/03 09:08:52;;;;;;;3.85;1.08;;;20.30;97.90;;;;;;5074016;28;20080;-74
2022/04/03 09:11:20;;;;;;;5.03;1.35;;;20.20;97.40;;;;;;5072438;28;20035;-75
2022/04/03 09:13:47;;;;;;;1.98;1.10;;;20.30;97.40;;;;;;5073793;28;20029;-74
2022/04/03 09:16:15;;;;;;;2.15;1.02;;;20.30;97.50;;;;;;5073230;28;20381;-73
2022/04/03 09:18:51;;;;;;;2.47;1.42;;;20.40;97.10;;;;;;5073689;28;20096;-75
2022/04/03 09:21:22;;;;;;;2.45;1.15;;;20.30;97.60;;;;;;5073745;28;20028;-75
2022/04/03 09:24:03;;;;;;;3.78;1.40;;;20.30;97.30;;;;;;5073731;28;20027;-75
2022/04/03 09:26:30;;;;;;;;;;;20.40;97.30;;;;;;5074020;28;20099;-75
2022/04/03 09:29:19;;;;;;;3.95;1.40;;;20.40;96.80;;;;;;5072284;28;19995;-76
2022/04/03 09:31:47;;;;;;;3.08;1.30;;;20.30;97.60;;;;;;5073295;28;20021;-76
2022/04/03 09:34:22;;;;;;;2.92;1.48;;;20.30;97.30;;;;;;5073522;28;20400;-77
2022/04/03 09:37:15;;;;;;;2.65;1.50;;;20.30;97.10;;;;;;5072156;28;20029;-76
2022/04/03 09:39:47;;;;;;;2.80;1.00;;;20.20;97.80;;;;;;5072446;28;20105;-77
2022/04/03 09:42:15;;;;;;;3.50;1.60;;;20.20;97.30;;;;;;5071983;28;20031;-77
2022/04/03 09:44:45;;;;;;;3.33;1.10;;;20.10;97.30;;;;;;5073380;28;20031;-76
2022/04/03 09:47:30;;;;;;;4.82;2.50;;;20.10;97.30;;;;;;5073327;28;20070;-76
2022/04/03 09:50:04;;;;;;;2.15;1.15;;;20.00;98.00;;;;;;5072242;28;20020;-76
2022/04/03 09:52:51;;;;;;;2.85;0.80;;;20.00;97.90;;;;;;5073057;28;20020;-74
2022/04/03 09:55:23;;;;;;;1.38;0.70;;;19.90;97.60;;;;;;5073085;28;20017;-75
2022/04/03 09:58:05;;;;;;;2.45;1.13;;;19.80;97.60;;;;;;5071834;28;20626;-76
2022/04/03 10:00:34;;;;;;;1.00;0.50;;;19.70;98.00;;;;;;5072939;28;20389;-75
2022/04/03 10:03:03;;;;;;;1.00;0.60;;;19.70;97.90;;;;;;5072851;28;20032;-76
2022/04/03 10:05:36;;;;;;;6.05;1.90;;;19.60;98.60;;;;;;5072716;28;20044;-77
2022/04/03 10:08:05;;;;;;;5.43;2.17;;;19.60;98.40;;;;;;5071570;28;20035;-76
2022/04/03 10:10:34;;;;;;;3.67;0.90;;;19.50;98.40;;;;;;5072820;28;20028;-77
2022/04/03 10:13:04;;;;;;;3.15;0.98;;;19.50;98.40;;;;;;5071380;28;20024;-77
2022/04/03 10:15:32;;;;;;;8.27;3.70;;;19.40;99.20;;;;;;5072688;28;20496;-77
2022/04/03 10:18:01;;;;;;;2.33;0.68;;;19.30;98.70;;;;;;5072802;28;20020;-76
2022/04/03 10:20:29;;;;;;;2.88;1.30;;;19.20;98.80;;;;;;5071384;28;20024;-77
2022/04/03 10:23:09;;;;;;;4.00;1.83;;;19.20;98.80;;;;;;5072669;28;20032;-77
2022/04/03 10:25:45;;;;;;;2.58;1.00;;;19.10;99.50;;;;;;5072543;28;20078;-77
2022/04/03 10:28:17;;;;;;;1.70;1.13;;;19.10;99.10;;;;;;5070380;28;20025;-77
2022/04/03 10:30:45;;;;;;;3.10;0.80;;;19.00;99.20;;;;;;5072552;28;20082;-76
2022/04/03 10:33:24;;;;;;;1.55;0.65;;;19.00;99.40;;;;;;5072310;28;20024;-75
2022/04/03 10:36:05;;;;;;;2.75;1.30;;;18.90;99.40;;;;;;5072392;28;20110;-75
2022/04/03 10:38:37;;;;;;;2.80;1.10;;;18.90;99.60;;;;;;5071060;28;20476;-76
2022/04/03 10:41:08;;;;;;;2.88;0.70;;;18.90;99.80;;;;;;5070947;28;20550;-76
2022/04/03 10:43:40;;;;;;;2.28;0.82;;;18.80;99.50;;;;;;5070895;28;20275;-76
2022/04/03 10:46:08;;;;;;;1.70;0.50;;;18.80;99.80;;;;;;5072204;28;20025;-75
2022/04/03 10:48:36;;;;;;;2.15;0.95;;;18.80;99.90;;;;;;5070846;28;20311;-74
2022/04/03 10:51:08;;;;;;;3.47;0.75;;;18.90;99.90;;;;;;5072299;28;20473;-74
2022/04/03 10:54:00;;;;;;;4.05;1.42;;;18.80;99.90;;;;;;5070807;28;20032;-75
2022/04/03 10:56:30;;;;;;;3.25;1.15;;;18.80;99.90;;;;;;5072113;28;20024;-75
2022/04/03 10:58:58;;;;;;;3.20;1.58;;;18.80;99.90;;;;;;5071971;28;20031;-76
2022/04/03 11:01:28;;;;;;;3.05;0.88;;;18.80;99.90;;;;;;5071970;28;20026;-75
2022/04/03 11:03:56;;;;;;;;;;;18.80;99.90;;;;;;5070803;28;20044;-76
2022/04/03 11:06:30;;;;;;;2.20;1.08;;;18.80;99.90;;;;;;5071030;28;19990;-76
2022/04/03 11:09:05;;;;;;;5.05;2.30;;;18.90;99.90;;;;;;5072120;28;20048;-76
2022/04/03 11:12:00;;;;;;;1.85;0.80;;;18.80;99.90;;;;;;5072185;28;20031;-76
2022/04/03 11:14:56;;;;;;;2.10;0.80;;;18.90;99.90;;;;;;5066690;28;20416;-77
2022/04/03 11:17:49;;;;;;;2.63;1.23;;;18.90;99.90;;;;;;5070858;28;20028;-78
2022/04/03 11:20:33;;;;;;;2.95;1.50;;;18.90;99.90;;;;;;5070737;28;20040;-77
2022/04/03 11:23:01;;;;;;;1.50;0.90;;;18.90;99.90;;;;;;5070727;28;20025;-77
2022/04/03 11:25:29;;;;;;;1.92;0.75;;;18.90;99.90;;;;;;5070746;28;20025;-77
2022/04/03 11:27:56;;;;;;;4.85;0.70;;;18.90;99.90;;;;;;5070682;28;20029;-77
2022/04/03 11:30:24;;;;;;;2.17;0.70;;;18.90;99.90;;;;;;5070737;28;20025;-77
2022/04/03 11:32:52;;;;;;;1.95;0.68;;;18.90;99.90;;;;;;5071617;28;20029;-77
2022/04/03 11:35:37;;;;;;;3.85;0.68;;;18.90;99.90;;;;;;5071895;28;20025;-78
2022/04/03 11:38:05;;;;;;;2.17;0.45;;;19.00;99.90;;;;;;5070556;28;20388;-76
2022/04/03 11:40:35;;;;;;;3.78;0.88;;;19.00;99.90;;;;;;5073691;28;20016;-77
2022/04/03 11:43:19;;;;;;;1.33;0.60;;;19.00;99.90;;;;;;5075763;28;20370;-76
2022/04/03 11:46:01;;;;;;;3.97;0.65;;;19.10;99.90;;;;;;5074218;28;20028;-76
2022/04/03 11:48:33;;;;;;;2.30;0.70;;;19.30;99.50;;;;;;5074054;28;20034;-77
2022/04/03 11:51:11;;;;;;;1.33;0.50;;;19.40;99.20;;;;;;5075431;28;20024;-76
2022/04/03 11:53:40;;;;;;;1.98;0.50;;;19.40;99.70;;;;;;5074359;28;20070;-77
2022/04/03 11:56:19;;;;;;;1.70;0.60;;;19.30;99.30;;;;;;5075813;28;20016;-76
2022/04/03 11:58:54;;;;;;;1.20;0.63;;;19.20;99.60;;;;;;5073806;28;20020;-75
2022/04/03 12:01:25;;;;;;;1.05;0.30;;;19.30;99.40;;;;;;5073867;28;20028;-76
2022/04/03 12:04:12;;;;;;;1.05;0.40;;;19.30;99.50;;;;;;5074997;28;20076;-76
2022/04/03 12:06:42;;;;;;;1.52;0.60;;;19.20;99.30;;;;;;5075207;28;20031;-76
2022/04/03 12:09:11;;;;;;;2.10;0.60;;;19.20;99.90;;;;;;5073750;28;20550;-78
2022/04/03 12:11:41;;;;;;;1.58;0.43;;;19.10;99.90;;;;;;5074900;28;20024;-77
2022/04/03 12:14:09;;;;;;;1.40;0.60;;;18.90;99.90;;;;;;5075097;28;20025;-78
2022/04/03 12:16:39;;;;;;;1.42;0.50;;;18.90;99.90;;;;;;5075012;28;20480;-78
2022/04/03 12:19:08;;;;;;;2.55;0.60;;;18.80;99.90;;;;;;5075027;28;20017;-78
2022/04/03 12:21:47;;;;;;;3.95;0.82;;;18.70;99.90;;;;;;5075119;28;20024;-78
2022/04/03 12:24:19;;;;;;;2.13;0.50;;;18.70;99.90;;;;;;5074987;28;20051;-78
2022/04/03 12:26:57;;;;;;;1.52;0.50;;;18.60;99.90;;;;;;5074779;28;20027;-78
2022/04/03 12:29:26;;;;;;;1.10;0.68;;;18.50;99.90;;;;;;5073535;28;20029;-78
2022/04/03 12:32:01;;;;;;;1.02;0.50;;;18.50;99.90;;;;;;5074776;28;20450;-78
2022/04/03 12:34:31;;;;;;;2.60;1.13;;;18.50;99.90;;;;;;5073451;28;20017;-78
2022/04/03 12:37:00;;;;;;;1.05;0.70;;;18.40;99.90;;;;;;5074661;28;20031;-78
2022/04/03 12:39:30;;;;;;;2.72;0.93;;;18.30;99.90;;;;;;5074504;28;20024;-78
2022/04/03 12:42:16;;;;;;;2.75;0.60;;;18.30;99.90;;;;;;5073092;28;20039;-78
2022/04/03 12:45:01;;;;;;;1.17;0.52;;;18.30;99.90;;;;;;5073453;28;20120;-77
2022/04/03 12:47:32;;;;;;;1.67;0.50;;;18.30;99.90;;;;;;5074528;28;20024;-78
2022/04/03 12:50:11;;;;;;;1.73;0.50;;;18.30;99.90;;;;;;5074514;28;20055;-78
2022/04/03 12:52:49;;;;;;;0.47;0.40;;;18.40;99.90;;;;;;5073859;28;20028;-78
2022/04/03 13:00:44;;;;;;;;;;;18.50;99.90;;;;;;5074745;28;20134;-78
2022/04/03 13:03:32;;;;;;;1.58;0.50;;;18.40;99.90;;;;;;5074180;28;20043;-78
2022/04/03 13:06:06;;;;;;;0.93;0.50;;;18.30;99.90;;;;;;5074073;28;20490;-77